createdAt,value
2018-07-12T00:00:16.059Z,21.35
2018-07-12T00:01:16.044Z,21.54
2018-07-12T00:02:16.040Z,21.64
2018-07-12T00:03:16.029Z,20.3
2018-07-12T00:04:16.020Z,20.01
2018-07-12T00:05:16.014Z,19.25
2018-07-12T00:06:16.006Z,19.25
2018-07-12T00:07:15.740Z,18.77
2018-07-12T00:08:15.995Z,17.82
2018-07-12T00:09:15.978Z,17.06
2018-07-12T00:10:15.973Z,16.39
2018-07-12T00:11:15.963Z,16.3
2018-07-12T00:12:15.960Z,15.92
2018-07-12T00:13:15.949Z,16.2
2018-07-12T00:14:15.953Z,16.3
2018-07-12T00:15:15.929Z,16.68
2018-07-12T00:16:15.925Z,16.87
2018-07-12T00:17:15.921Z,18.01
2018-07-12T00:18:15.905Z,15.92
2018-07-12T00:19:15.899Z,15.72
2018-07-12T00:20:15.892Z,15.92
2018-07-12T00:21:15.892Z,16.78
2018-07-12T00:22:15.871Z,17.92
2018-07-12T00:23:15.870Z,18.79
2018-07-12T00:24:15.868Z,19.45
2018-07-12T00:25:15.853Z,20.03
2018-07-12T00:26:15.843Z,21.26
2018-07-12T00:27:15.832Z,22.89
2018-07-12T00:28:15.826Z,24.13
2018-07-12T00:29:15.816Z,24.69
2018-07-12T00:30:15.813Z,25.08
2018-07-12T00:31:15.805Z,25.08
2018-07-12T00:32:15.796Z,25.08
2018-07-12T00:33:15.803Z,24.13
2018-07-12T00:34:15.786Z,23.36
2018-07-12T00:35:15.514Z,23.46
2018-07-12T00:36:15.771Z,24.03
2018-07-12T00:37:15.756Z,24.22
2018-07-12T00:38:15.746Z,23.55
2018-07-12T00:39:15.743Z,22.03
2018-07-12T00:40:15.735Z,21.64
2018-07-12T00:41:15.723Z,21.74
2018-07-12T00:42:15.718Z,22.5
2018-07-12T00:43:15.710Z,22.98
2018-07-12T00:44:15.703Z,23.55
2018-07-12T00:45:15.438Z,22.69
2018-07-12T00:46:15.686Z,23.46
2018-07-12T00:47:15.678Z,24.51
2018-07-12T00:48:15.671Z,25.46
2018-07-12T00:49:15.664Z,26.51
2018-07-12T00:50:15.658Z,26.89
2018-07-12T00:51:15.646Z,26.98
2018-07-12T00:52:15.642Z,26.89
2018-07-12T00:53:15.634Z,27.08
2018-07-12T00:54:15.623Z,26.89
2018-07-12T00:55:15.627Z,25.94
2018-07-12T00:56:15.607Z,25.27
2018-07-12T00:57:15.599Z,24.89
2018-07-12T00:58:15.595Z,24.89
2018-07-12T00:59:15.585Z,25.18
2018-07-12T01:00:15.577Z,25.46
2018-07-12T01:01:15.571Z,25.37
2018-07-12T01:02:15.562Z,26.13
2018-07-12T01:03:15.557Z,25.27
2018-07-12T01:04:15.548Z,25.56
2018-07-12T01:05:15.544Z,25.08
2018-07-12T01:06:15.534Z,26.61
2018-07-12T01:07:15.521Z,26.51
2018-07-12T01:08:15.517Z,25.74
2018-07-12T01:09:15.511Z,26.89
2018-07-12T01:10:15.501Z,27.47
2018-07-12T01:11:15.237Z,27.94
2018-07-12T01:12:15.486Z,26.98
2018-07-12T01:13:15.481Z,26.79
2018-07-12T01:14:15.472Z,26.42
2018-07-12T01:15:15.459Z,25.94
2018-07-12T01:16:15.456Z,25.37
2018-07-12T01:17:15.450Z,24.03
2018-07-12T01:18:15.439Z,24.32
2018-07-12T01:19:15.435Z,25.27
2018-07-12T01:20:15.424Z,26.13
2018-07-12T01:21:15.417Z,25.18
2018-07-12T01:22:15.407Z,24.32
2018-07-12T01:23:15.145Z,23.55
2018-07-12T01:24:15.393Z,23.36
2018-07-12T01:25:15.389Z,23.46
2018-07-12T01:26:15.378Z,23.36
2018-07-12T01:27:15.366Z,23.55
2018-07-12T01:28:15.361Z,24.22
2018-07-12T01:29:15.096Z,23.84
2018-07-12T01:30:15.346Z,22.98
2018-07-12T01:31:15.339Z,23.27
2018-07-12T01:32:15.072Z,23.17
2018-07-12T01:33:15.320Z,24.51
2018-07-12T01:34:15.315Z,25.27
2018-07-12T01:35:15.307Z,26.51
2018-07-12T01:36:15.461Z,25.94
2018-07-12T01:37:15.296Z,24.98
2018-07-12T01:38:15.286Z,25.56
2018-07-12T01:39:15.274Z,25.84
2018-07-12T01:40:15.275Z,25.94
2018-07-12T01:41:15.258Z,25.94
2018-07-12T01:42:15.256Z,25.18
2018-07-12T01:43:15.244Z,24.69
2018-07-12T01:44:14.984Z,25.18
2018-07-12T01:45:14.976Z,25.27
2018-07-12T01:46:15.225Z,24.32
2018-07-12T01:47:15.222Z,24.03
2018-07-12T01:48:15.206Z,23.36
2018-07-12T01:49:15.200Z,22.31
2018-07-12T01:50:15.190Z,22.6
2018-07-12T01:51:15.184Z,22.13
2018-07-12T01:52:15.176Z,21.55
2018-07-12T01:53:15.173Z,20.79
2018-07-12T01:54:14.908Z,21.26
2018-07-12T01:55:15.156Z,21.74
2018-07-12T01:56:15.149Z,21.55
2018-07-12T01:57:15.140Z,21.26
2018-07-12T01:58:15.133Z,22.98
2018-07-12T01:59:15.126Z,23.84
2018-07-12T02:00:15.117Z,24.79
2018-07-12T02:01:15.109Z,25.56
2018-07-12T02:02:15.103Z,25.56
2018-07-12T02:03:15.094Z,25.18
2018-07-12T02:04:15.087Z,24.51
2018-07-12T02:05:15.077Z,23.46
2018-07-12T02:06:15.073Z,21.45
2018-07-12T02:07:15.064Z,20.5
2018-07-12T02:08:15.056Z,20.31
2018-07-12T02:09:15.054Z,20.03
2018-07-12T02:10:15.043Z,20.03
2018-07-12T02:11:15.034Z,19.64
2018-07-12T02:12:14.766Z,19.84
2018-07-12T02:13:15.029Z,19.93
2018-07-12T02:14:15.013Z,19.74
2018-07-12T02:15:14.747Z,18.31
2018-07-12T02:16:14.997Z,17.07
2018-07-12T02:17:14.991Z,15.92
2018-07-12T02:18:14.979Z,15.92
2018-07-12T02:19:14.974Z,15.92
2018-07-12T02:20:14.968Z,15.92
2018-07-12T02:21:14.955Z,16.11
2018-07-12T02:22:14.951Z,15.73
2018-07-12T02:23:14.942Z,16.4
2018-07-12T02:24:14.930Z,16.78
2018-07-12T02:25:14.928Z,16.97
2018-07-12T02:26:14.920Z,16.69
2018-07-12T02:27:14.911Z,16.59
2018-07-12T02:28:14.904Z,16.5
2018-07-12T02:29:14.896Z,16.69
2018-07-12T02:30:14.888Z,16.11
2018-07-12T02:31:14.894Z,15.83
2018-07-12T02:32:14.877Z,15.92
2018-07-12T02:33:14.611Z,15.16
2018-07-12T02:34:14.619Z,15.06
2018-07-12T02:35:14.966Z,13.73
2018-07-12T02:36:14.857Z,13.25
2018-07-12T02:37:14.834Z,12.4
2018-07-12T02:38:14.826Z,12.87
2018-07-12T02:39:14.566Z,13.64
2018-07-12T02:40:14.815Z,14.59
2018-07-12T02:41:14.806Z,15.06
2018-07-12T02:42:14.803Z,14.78
2018-07-12T02:43:14.790Z,14.5
2018-07-12T02:44:14.782Z,14.79
2018-07-12T02:45:14.773Z,14.88
2018-07-12T02:46:14.767Z,14.5
2018-07-12T02:47:14.763Z,14.4
2018-07-12T02:48:14.496Z,13.93
2018-07-12T02:49:14.745Z,14.5
2018-07-12T02:50:14.479Z,15.55
2018-07-12T02:51:14.733Z,15.93
2018-07-12T02:52:14.721Z,16.41
2018-07-12T02:53:14.719Z,17.36
2018-07-12T02:54:14.706Z,18.79
2018-07-12T02:55:14.702Z,20.13
2018-07-12T02:56:14.699Z,20.32
2018-07-12T02:57:14.684Z,20.79
2018-07-12T02:58:14.421Z,20.32
2018-07-12T02:59:14.668Z,20.23
2018-07-12T03:00:14.665Z,19.65
2018-07-12T03:01:14.653Z,19.18
2018-07-12T03:02:14.660Z,19.65
2018-07-12T03:03:14.638Z,20.99
2018-07-12T03:04:14.382Z,22.23
2018-07-12T03:05:14.622Z,22.61
2018-07-12T03:06:14.617Z,22.89
2018-07-12T03:07:14.354Z,22.71
2018-07-12T03:08:14.604Z,22.52
2018-07-12T03:09:14.341Z,22.52
2018-07-12T03:10:14.587Z,22.42
2018-07-12T03:11:14.584Z,22.99
2018-07-12T03:12:14.573Z,24.04
2018-07-12T03:13:14.566Z,24.99
2018-07-12T03:14:14.565Z,25.19
2018-07-12T03:15:14.550Z,26.04
2018-07-12T03:16:14.545Z,26.04
2018-07-12T03:17:14.536Z,26.43
2018-07-12T03:18:14.272Z,26.81
2018-07-12T03:19:14.522Z,25.76
2018-07-12T03:20:14.518Z,26.14
2018-07-12T03:21:14.253Z,26.04
2018-07-12T03:22:14.499Z,25.85
2018-07-12T03:23:14.490Z,25.95
2018-07-12T03:24:14.486Z,25.95
2018-07-12T03:25:14.476Z,26.24
2018-07-12T03:26:14.471Z,26.43
2018-07-12T03:27:14.461Z,26.43
2018-07-12T03:28:14.455Z,26.24
2018-07-12T03:29:14.448Z,26.9
2018-07-12T03:30:14.452Z,25.67
2018-07-12T03:31:14.436Z,25.28
2018-07-12T03:32:14.425Z,26.14
2018-07-12T03:33:14.417Z,25.95
2018-07-12T03:34:14.429Z,25.95
2018-07-12T03:35:14.406Z,25.28
2018-07-12T03:36:14.394Z,25.38
2018-07-12T03:37:14.388Z,25.28
2018-07-12T03:38:14.380Z,24.33
2018-07-12T03:39:14.378Z,23.94
2018-07-12T03:40:14.109Z,24.04
2018-07-12T03:41:14.373Z,24.8
2018-07-12T03:42:14.351Z,25.28
2018-07-12T03:43:14.346Z,26.81
2018-07-12T03:44:14.337Z,27.57
2018-07-12T03:45:14.331Z,27
2018-07-12T03:46:14.322Z,27.09
2018-07-12T03:47:14.328Z,25.85
2018-07-12T03:48:14.307Z,24.99
2018-07-12T03:49:14.041Z,25.67
2018-07-12T03:50:14.035Z,26.14
2018-07-12T03:51:14.284Z,26.33
2018-07-12T03:52:14.020Z,25.76
2018-07-12T03:53:14.268Z,25.76
2018-07-12T03:54:14.006Z,24.33
2018-07-12T03:55:14.257Z,24.04
2018-07-12T03:56:14.248Z,22.52
2018-07-12T03:57:14.238Z,21.75
2018-07-12T03:58:14.232Z,21.37
2018-07-12T03:59:14.227Z,21.66
2018-07-12T04:00:13.959Z,22.23
2018-07-12T04:01:14.214Z,22.04
2018-07-12T04:02:14.208Z,21.37
2018-07-12T04:03:14.196Z,21.84
2018-07-12T04:04:14.191Z,21.18
2018-07-12T04:05:14.187Z,21.66
2018-07-12T04:06:14.175Z,22.33
2018-07-12T04:07:14.162Z,22.8
2018-07-12T04:08:14.159Z,22.71
2018-07-12T04:09:13.896Z,22.8
2018-07-12T04:10:14.144Z,23.38
2018-07-12T04:11:14.136Z,23.85
2018-07-12T04:12:14.126Z,22.89
2018-07-12T04:13:14.122Z,21.94
2018-07-12T04:14:14.116Z,21.66
2018-07-12T04:15:14.107Z,21.08
2018-07-12T04:16:13.842Z,20.5
2018-07-12T04:17:14.095Z,19.26
2018-07-12T04:18:14.081Z,19.07
2018-07-12T04:19:14.121Z,18.59
2018-07-12T04:20:14.069Z,17.83
2018-07-12T04:21:14.060Z,17.74
2018-07-12T04:22:14.053Z,17.26
2018-07-12T04:23:14.049Z,16.69
2018-07-12T04:24:14.043Z,16.88
2018-07-12T04:25:13.777Z,16.02
2018-07-12T04:26:14.023Z,15.83
2018-07-12T04:27:13.762Z,15.83
2018-07-12T04:28:14.010Z,14.59
2018-07-12T04:29:14.008Z,14.59
2018-07-12T04:30:13.998Z,14.78
2018-07-12T04:31:13.989Z,14.5
2018-07-12T04:32:13.984Z,14.78
2018-07-12T04:33:13.981Z,14.59
2018-07-12T04:34:13.980Z,14.5
2018-07-12T04:35:13.704Z,13.82
2018-07-12T04:36:13.956Z,12.97
2018-07-12T04:37:13.951Z,13.06
2018-07-12T04:38:13.941Z,13.45
2018-07-12T04:39:13.931Z,13.82
2018-07-12T04:40:13.924Z,15.17
2018-07-12T04:41:13.921Z,16.6
2018-07-12T04:42:13.911Z,17.27
2018-07-12T04:43:13.902Z,19.56
2018-07-12T04:44:13.895Z,19.94
2018-07-12T04:45:13.889Z,21.08
2018-07-12T04:46:13.893Z,22.05
2018-07-12T04:47:13.876Z,23.77
2018-07-12T04:48:13.867Z,24.34
2018-07-12T04:49:13.864Z,26.06
2018-07-12T04:50:13.852Z,25.29
2018-07-12T04:51:13.922Z,25.29
2018-07-12T04:52:13.841Z,25.96
2018-07-12T04:53:13.834Z,27.31
2018-07-12T04:54:13.825Z,29.32
2018-07-12T04:55:13.565Z,34.84
2018-07-12T04:56:13.816Z,35.7
2018-07-12T04:57:13.804Z,35.41
2018-07-12T04:58:14.009Z,34.46
2018-07-12T04:59:13.538Z,35.13
2018-07-12T05:00:13.783Z,34.27
2018-07-12T05:01:13.783Z,34.08
2018-07-12T05:02:13.773Z,33.31
2018-07-12T05:03:13.767Z,32.84
2018-07-12T05:04:13.503Z,32.93
2018-07-12T05:05:13.753Z,31.98
2018-07-12T05:06:13.488Z,31.79
2018-07-12T05:07:13.737Z,32.45
2018-07-12T05:08:13.845Z,32.93
2018-07-12T05:09:13.722Z,31.69
2018-07-12T05:10:13.461Z,31.21
2018-07-12T05:11:13.709Z,33.12
2018-07-12T05:12:13.703Z,33.31
2018-07-12T05:13:13.699Z,29.3
2018-07-12T05:14:13.692Z,27.39
2018-07-12T05:15:13.680Z,27.3
2018-07-12T05:16:13.780Z,27.59
2018-07-12T05:17:13.670Z,28.06
2018-07-12T05:18:13.664Z,26.06
2018-07-12T05:19:13.653Z,28.06
2018-07-12T05:20:13.648Z,28.06
2018-07-12T05:21:13.640Z,31.31
2018-07-12T05:22:13.636Z,29.4
2018-07-12T05:23:13.368Z,29.4
2018-07-12T05:24:13.362Z,31.12
2018-07-12T05:25:13.618Z,31.42
2018-07-12T05:26:13.349Z,30.93
2018-07-12T05:27:13.340Z,32.55
2018-07-12T05:28:13.333Z,30.26
2018-07-12T05:29:13.587Z,32.95
2018-07-12T05:30:13.581Z,36.39
2018-07-12T05:31:13.576Z,36.1
2018-07-12T05:32:13.568Z,36.39
2018-07-12T05:33:13.302Z,36.1
2018-07-12T05:34:13.295Z,40.11
2018-07-12T05:35:13.546Z,40.3
2018-07-12T05:36:13.539Z,38.49
2018-07-12T05:37:13.537Z,36.77
2018-07-12T05:38:13.527Z,37.65
2018-07-12T05:39:13.618Z,42.43
2018-07-12T05:40:13.513Z,45.01
2018-07-12T05:41:13.506Z,45.48
2018-07-12T05:42:13.497Z,44.34
2018-07-12T05:43:13.491Z,42.81
2018-07-12T05:44:13.229Z,43.48
2018-07-12T05:45:13.480Z,43.95
2018-07-12T05:46:13.478Z,44.43
2018-07-12T05:47:13.470Z,49.02
2018-07-12T05:48:13.462Z,51.7
2018-07-12T05:49:13.199Z,56.57
2018-07-12T05:50:13.449Z,55.32
2018-07-12T05:51:13.183Z,53.51
2018-07-12T05:52:13.181Z,54.37
2018-07-12T05:53:13.438Z,55.52
2018-07-12T05:54:13.166Z,57.33
2018-07-12T05:55:13.160Z,55.52
2018-07-12T05:56:13.412Z,53.41
2018-07-12T05:57:13.406Z,47.97
2018-07-12T05:58:13.397Z,48.93
2018-07-12T05:59:13.390Z,47.87
2018-07-12T06:00:13.391Z,48.44
2018-07-12T06:01:13.386Z,50.84
2018-07-12T06:02:13.376Z,51.6
2018-07-12T06:03:13.113Z,52.36
2018-07-12T06:04:13.362Z,55.61
2018-07-12T06:05:13.365Z,58.03
2018-07-12T06:06:13.348Z,57.33
2018-07-12T06:07:13.346Z,53.44
2018-07-12T06:08:13.338Z,55.16
2018-07-12T06:09:13.333Z,55.83
2018-07-12T06:10:13.070Z,58.89
2018-07-12T06:11:13.318Z,56.12
2018-07-12T06:12:13.310Z,58.03
2018-07-12T06:13:13.474Z,55.07
2018-07-12T06:14:13.300Z,53.92
2018-07-12T06:15:13.294Z,58.03
2018-07-12T06:16:13.109Z,59.47
2018-07-12T06:17:13.289Z,58.89
2018-07-12T06:18:13.281Z,63.57
2018-07-12T06:19:13.272Z,64.72
2018-07-12T06:20:13.269Z,66.86
2018-07-12T06:21:13.268Z,67.69
2018-07-12T06:22:13.257Z,73.46
2018-07-12T06:23:13.249Z,73.55
2018-07-12T06:24:13.243Z,71.7
2018-07-12T06:25:13.243Z,70.84
2018-07-12T06:26:13.235Z,72.18
2018-07-12T06:27:13.225Z,73.99
2018-07-12T06:28:12.964Z,71.51
2018-07-12T06:29:13.216Z,69.89
2018-07-12T06:30:13.211Z,71.32
2018-07-12T06:31:13.202Z,68.55
2018-07-12T06:32:13.198Z,66.73
2018-07-12T06:33:13.191Z,68.16
2018-07-12T06:34:13.185Z,65.97
2018-07-12T06:35:13.186Z,63.86
2018-07-12T06:36:13.173Z,64.62
2018-07-12T06:37:13.323Z,68.45
2018-07-12T06:38:13.164Z,74.95
2018-07-12T06:39:13.160Z,75.71
2018-07-12T06:40:12.901Z,73.8
2018-07-12T06:41:13.151Z,76.77
2018-07-12T06:42:13.140Z,76.29
2018-07-12T06:43:13.134Z,75.81
2018-07-12T06:44:12.872Z,72.94
2018-07-12T06:45:13.131Z,78.01
2018-07-12T06:46:13.120Z,78.49
2018-07-12T06:47:13.119Z,76.96
2018-07-12T06:48:13.107Z,77.44
2018-07-12T06:49:13.105Z,75.85
2018-07-12T06:50:13.097Z,76.62
2018-07-12T06:51:13.090Z,75.66
2018-07-12T06:52:13.089Z,78.24
2018-07-12T06:53:12.824Z,78.24
2018-07-12T06:54:13.073Z,81.88
2018-07-12T06:55:12.814Z,81.88
2018-07-12T06:56:13.068Z,82.17
2018-07-12T06:57:13.060Z,78.53
2018-07-12T06:58:13.052Z,79
2018-07-12T06:59:13.048Z,78.95
2018-07-12T07:00:13.050Z,83.54
2018-07-12T07:01:13.039Z,86.61
2018-07-12T07:02:12.775Z,89.52
2018-07-12T07:03:13.027Z,93.54
2018-07-12T07:04:13.022Z,94.4
2018-07-12T07:05:13.020Z,94.07
2018-07-12T07:06:13.016Z,99.99
2018-07-12T07:07:13.010Z,99.99
2018-07-12T07:08:12.744Z,99.99
2018-07-12T07:09:13.006Z,98.62
2018-07-12T07:10:12.997Z,99.99
2018-07-12T07:11:12.988Z,98.38
2018-07-12T07:12:12.981Z,96.75
2018-07-12T07:13:12.982Z,95.36
2018-07-12T07:14:12.973Z,92.11
2018-07-12T07:15:12.969Z,89.05
2018-07-12T07:16:12.707Z,87.71
2018-07-12T07:17:12.961Z,84.46
2018-07-12T07:18:12.957Z,82.83
2018-07-12T07:19:12.959Z,83.4
2018-07-12T07:20:13.128Z,82.74
2018-07-12T07:21:12.984Z,88.09
2018-07-12T07:22:12.931Z,91.11
2018-07-12T07:23:12.926Z,96.47
2018-07-12T07:24:12.925Z,96.08
2018-07-12T07:25:12.918Z,97.61
2018-07-12T07:26:12.661Z,99.52
2018-07-12T07:27:12.911Z,98.66
2018-07-12T07:28:12.904Z,90.19
2018-07-12T07:29:12.644Z,97.66
2018-07-12T07:30:12.639Z,99.99
2018-07-12T07:31:12.891Z,99.99
2018-07-12T07:32:12.630Z,99.99
2018-07-12T07:33:12.623Z,99.99
2018-07-12T07:34:13.019Z,99.99
2018-07-12T07:35:12.617Z,99.99
2018-07-12T07:36:12.873Z,99.99
2018-07-12T07:37:12.866Z,99.99
2018-07-12T07:38:12.866Z,99.99
2018-07-12T07:39:12.858Z,99.99
2018-07-12T07:40:12.855Z,99.99
2018-07-12T07:41:12.859Z,99.99
2018-07-12T07:42:12.591Z,99.99
2018-07-12T07:43:13.237Z,99.99
2018-07-12T07:44:12.842Z,99.99
2018-07-12T07:45:12.842Z,99.99
2018-07-12T07:46:12.845Z,99.99
2018-07-12T07:47:12.838Z,99.99
2018-07-12T07:48:12.836Z,99.99
2018-07-12T07:49:12.900Z,99.99
2018-07-12T07:50:12.828Z,99.99
2018-07-12T07:51:12.831Z,99.99
2018-07-12T07:52:12.827Z,99.99
2018-07-12T07:53:12.563Z,99.99
2018-07-12T07:54:12.559Z,99.99
2018-07-12T07:55:12.557Z,99.99
2018-07-12T07:56:12.814Z,99.99
2018-07-12T07:57:12.672Z,99.99
2018-07-12T07:58:12.805Z,99.99
2018-07-12T07:59:12.549Z,99.99
2018-07-12T08:00:12.799Z,99.99
2018-07-12T08:01:12.801Z,99.99
2018-07-12T08:02:12.805Z,99.99
2018-07-12T08:03:12.793Z,99.99
2018-07-12T08:04:12.791Z,99.99
2018-07-12T08:05:12.789Z,99.99
2018-07-12T08:06:12.789Z,99.99
2018-07-12T08:07:12.524Z,99.99
2018-07-12T08:08:12.788Z,99.99
2018-07-12T08:09:12.782Z,99.99
2018-07-12T08:10:12.775Z,99.99
2018-07-12T08:11:12.779Z,99.99
2018-07-12T08:12:12.771Z,99.99
2018-07-12T08:13:12.771Z,99.99
2018-07-12T08:14:12.765Z,99.99
2018-07-12T08:15:12.765Z,99.99
2018-07-12T08:16:12.813Z,99.99
2018-07-12T08:17:12.761Z,99.99
2018-07-12T08:18:12.758Z,99.99
2018-07-12T08:19:12.753Z,99.99
2018-07-12T08:20:12.753Z,99.99
2018-07-12T08:21:12.748Z,99.99
2018-07-12T08:22:12.752Z,99.99
2018-07-12T08:23:12.742Z,99.99
2018-07-12T08:24:12.746Z,99.99
2018-07-12T08:25:12.741Z,99.99
2018-07-12T08:26:12.739Z,99.99
2018-07-12T08:27:12.742Z,99.99
2018-07-12T08:28:12.731Z,99.99
2018-07-12T08:29:12.730Z,99.99
2018-07-12T08:30:12.729Z,99.99
2018-07-12T08:31:12.809Z,99.99
2018-07-12T08:32:12.727Z,99.99
2018-07-12T08:33:12.729Z,99.99
2018-07-12T08:34:12.722Z,99.99
2018-07-12T08:35:12.719Z,99.99
2018-07-12T08:36:12.751Z,99.99
2018-07-12T08:37:12.714Z,99.99
2018-07-12T08:38:12.715Z,99.99
2018-07-12T08:39:12.707Z,99.99
2018-07-12T08:40:12.703Z,99.99
2018-07-12T08:41:12.705Z,99.99
2018-07-12T08:42:12.700Z,99.99
2018-07-12T08:43:12.697Z,99.99
2018-07-12T08:44:12.695Z,99.99
2018-07-12T08:45:12.693Z,99.99
2018-07-12T08:46:12.449Z,99.99
2018-07-12T08:47:12.691Z,99.99
2018-07-12T08:48:12.427Z,99.99
2018-07-12T08:49:12.686Z,99.99
2018-07-12T08:50:12.678Z,99.99
2018-07-12T08:51:12.421Z,99.99
2018-07-12T08:52:12.679Z,99.99
2018-07-12T08:53:12.871Z,99.99
2018-07-12T08:54:12.409Z,99.99
2018-07-12T08:55:12.713Z,99.99
2018-07-12T08:56:12.660Z,99.99
2018-07-12T08:57:12.403Z,99.99
2018-07-12T08:58:12.650Z,99.99
2018-07-12T08:59:12.650Z,99.99
2018-07-12T09:00:12.652Z,99.99
2018-07-12T09:01:12.642Z,99.99
2018-07-12T09:02:12.641Z,99.99
2018-07-12T09:03:12.638Z,99.99
2018-07-12T09:04:12.634Z,99.99
2018-07-12T09:05:12.638Z,99.99
2018-07-12T09:06:12.368Z,99.99
2018-07-12T09:07:12.365Z,99.99
2018-07-12T09:08:12.620Z,99.99
2018-07-12T09:09:12.618Z,99.99
2018-07-12T09:10:12.615Z,99.99
2018-07-12T09:11:12.353Z,99.99
2018-07-12T09:12:12.659Z,99.99
2018-07-12T09:13:12.603Z,99.99
2018-07-12T09:14:12.602Z,99.99
2018-07-12T09:15:12.605Z,99.99
2018-07-12T09:16:12.593Z,99.99
2018-07-12T09:17:12.592Z,99.99
2018-07-12T09:18:12.590Z,99.99
2018-07-12T09:19:12.582Z,99.99
2018-07-12T09:20:12.584Z,99.99
2018-07-12T09:21:12.323Z,99.99
2018-07-12T09:22:12.577Z,99.99
2018-07-12T09:23:12.573Z,99.99
2018-07-12T09:24:12.567Z,99.99
2018-07-12T09:25:12.565Z,99.99
2018-07-12T09:26:12.569Z,99.99
2018-07-12T09:27:12.562Z,99.99
2018-07-12T09:28:12.559Z,99.99
2018-07-12T09:29:12.669Z,99.99
2018-07-12T09:30:12.553Z,99.99
2018-07-12T09:31:12.557Z,99.99
2018-07-12T09:32:12.544Z,99.99
2018-07-12T09:33:12.286Z,99.99
2018-07-12T09:34:12.541Z,99.99
2018-07-12T09:35:12.537Z,99.99
2018-07-12T09:36:12.533Z,99.99
2018-07-12T09:37:12.529Z,99.99
2018-07-12T09:38:12.270Z,99.99
2018-07-12T09:39:12.529Z,99.99
2018-07-12T09:40:12.522Z,99.99
2018-07-12T09:41:12.518Z,99.99
2018-07-12T09:42:12.256Z,99.99
2018-07-12T09:43:12.541Z,99.99
2018-07-12T09:44:12.515Z,99.99
2018-07-12T09:45:12.554Z,99.99
2018-07-12T09:46:12.504Z,99.99
2018-07-12T09:47:12.549Z,99.99
2018-07-12T09:48:12.502Z,99.99
2018-07-12T09:49:12.793Z,99.99
2018-07-12T09:50:12.490Z,99.99
2018-07-12T09:51:12.490Z,99.99
2018-07-12T09:52:12.483Z,99.99
2018-07-12T09:53:12.482Z,99.99
2018-07-12T09:54:12.483Z,99.99
2018-07-12T09:55:12.477Z,99.99
2018-07-12T09:56:12.835Z,99.99
2018-07-12T09:57:12.466Z,99.99
2018-07-12T09:58:12.462Z,99.99
2018-07-12T09:59:12.462Z,99.99
2018-07-12T10:00:12.463Z,99.99
2018-07-12T10:01:12.512Z,99.99
2018-07-12T10:02:12.453Z,99.99
2018-07-12T10:03:12.447Z,99.99
2018-07-12T10:04:12.443Z,99.99
2018-07-12T10:05:12.185Z,99.99
2018-07-12T10:06:12.440Z,99.99
2018-07-12T10:07:12.434Z,99.99
2018-07-12T10:08:12.435Z,99.99
2018-07-12T10:09:12.423Z,99.99
2018-07-12T10:10:12.427Z,99.99
2018-07-12T10:11:12.428Z,99.99
2018-07-12T10:12:12.418Z,99.99
2018-07-12T10:13:12.412Z,99.99
2018-07-12T10:14:12.155Z,99.99
2018-07-12T10:15:12.406Z,99.99
2018-07-12T10:16:12.403Z,99.99
2018-07-12T10:17:12.407Z,99.99
2018-07-12T10:18:12.398Z,99.99
2018-07-12T10:19:12.392Z,99.99
2018-07-12T10:20:12.386Z,99.99
2018-07-12T10:21:12.389Z,99.99
2018-07-12T10:22:12.120Z,99.99
2018-07-12T10:23:12.376Z,99.99
2018-07-12T10:24:12.373Z,99.99
2018-07-12T10:25:12.366Z,99.99
2018-07-12T10:26:12.367Z,99.99
2018-07-12T10:27:12.360Z,99.99
2018-07-12T10:28:12.357Z,99.99
2018-07-12T10:29:12.354Z,99.99
2018-07-12T10:30:12.348Z,99.99
2018-07-12T10:31:12.348Z,99.99
2018-07-12T10:32:12.345Z,99.99
2018-07-12T10:33:12.345Z,99.99
2018-07-12T10:34:12.080Z,99.99
2018-07-12T10:35:12.331Z,99.99
2018-07-12T10:36:12.329Z,99.99
2018-07-12T10:37:12.326Z,99.99
2018-07-12T10:38:12.067Z,99.99
2018-07-12T10:39:12.317Z,99.99
2018-07-12T10:40:12.314Z,99.99
2018-07-12T10:41:12.054Z,99.99
2018-07-12T10:42:12.050Z,99.99
2018-07-12T10:43:12.309Z,99.99
2018-07-12T10:44:12.044Z,99.99
2018-07-12T10:45:12.299Z,99.99
2018-07-12T10:46:12.297Z,99.99
2018-07-12T10:47:12.289Z,99.99
2018-07-12T10:48:12.290Z,99.99
2018-07-12T10:49:12.287Z,99.99
2018-07-12T10:50:12.280Z,99.99
2018-07-12T10:51:12.025Z,99.99
2018-07-12T10:52:12.275Z,99.99
2018-07-12T10:53:12.017Z,99.99
2018-07-12T10:54:12.269Z,99.99
2018-07-12T10:55:12.267Z,99.99
2018-07-12T10:56:12.270Z,99.99
2018-07-12T10:57:12.264Z,99.99
2018-07-12T10:58:12.259Z,99.99
2018-07-12T10:59:12.256Z,99.99
2018-07-12T11:00:12.250Z,99.99
2018-07-12T11:01:12.246Z,99.99
2018-07-12T11:02:12.244Z,99.99
2018-07-12T11:03:11.988Z,99.99
2018-07-12T11:04:12.244Z,99.99
2018-07-12T11:05:12.237Z,99.99
2018-07-12T11:06:12.232Z,99.99
2018-07-12T11:07:12.229Z,99.99
2018-07-12T11:08:12.229Z,99.99
2018-07-12T11:09:12.298Z,99.99
2018-07-12T11:10:12.227Z,99.99
2018-07-12T11:11:11.959Z,99.99
2018-07-12T11:12:12.216Z,99.99
2018-07-12T11:13:12.213Z,99.99
2018-07-12T11:14:12.207Z,99.99
2018-07-12T11:15:12.199Z,99.99
2018-07-12T11:16:12.195Z,99.99
2018-07-12T11:17:12.194Z,99.99
2018-07-12T11:18:11.932Z,99.99
2018-07-12T11:19:12.185Z,99.99
2018-07-12T11:20:11.925Z,99.99
2018-07-12T11:21:12.281Z,99.99
2018-07-12T11:22:12.182Z,99.99
2018-07-12T11:23:12.172Z,99.99
2018-07-12T11:24:12.169Z,99.99
2018-07-12T11:25:12.163Z,99.99
2018-07-12T11:26:12.169Z,99.99
2018-07-12T11:27:12.156Z,99.99
2018-07-12T11:28:12.339Z,99.99
2018-07-12T11:29:12.151Z,99.99
2018-07-12T11:30:12.181Z,99.99
2018-07-12T11:31:12.145Z,99.99
2018-07-12T11:32:12.144Z,99.99
2018-07-12T11:33:12.136Z,99.99
2018-07-12T11:34:12.134Z,99.99
2018-07-12T11:35:12.130Z,99.99
2018-07-12T11:36:12.234Z,99.99
2018-07-12T11:37:12.243Z,99.99
2018-07-12T11:38:12.120Z,99.99
2018-07-12T11:39:12.120Z,99.99
2018-07-12T11:40:12.134Z,99.99
2018-07-12T11:41:12.113Z,99.99
2018-07-12T11:42:12.111Z,99.99
2018-07-12T11:43:12.109Z,99.99
2018-07-12T11:44:12.110Z,99.99
2018-07-12T11:45:12.101Z,99.99
2018-07-12T11:46:12.098Z,99.99
2018-07-12T11:47:12.102Z,99.99
2018-07-12T11:48:12.096Z,99.99
2018-07-12T11:49:12.098Z,99.99
2018-07-12T11:50:12.093Z,99.99
2018-07-12T11:51:12.101Z,99.99
2018-07-12T11:52:12.092Z,99.99
2018-07-12T11:53:12.084Z,99.99
2018-07-12T11:54:12.083Z,99.99
2018-07-12T11:55:12.076Z,99.99
2018-07-12T11:56:12.072Z,99.99
2018-07-12T11:57:11.816Z,99.99
2018-07-12T11:58:11.810Z,99.99
2018-07-12T11:59:12.063Z,99.99
2018-07-12T12:00:12.061Z,99.99
2018-07-12T12:01:12.071Z,99.99
2018-07-12T12:02:12.050Z,99.99
2018-07-12T12:03:11.792Z,99.99
2018-07-12T12:04:12.047Z,99.99
2018-07-12T12:05:12.041Z,99.99
2018-07-12T12:06:12.043Z,99.99
2018-07-12T12:07:12.039Z,99.99
2018-07-12T12:08:12.034Z,99.99
2018-07-12T12:09:12.032Z,99.99
2018-07-12T12:10:12.028Z,99.99
2018-07-12T12:11:12.032Z,99.99
2018-07-12T12:12:12.026Z,99.99
2018-07-12T12:13:12.025Z,99.99
2018-07-12T12:14:12.027Z,99.99
2018-07-12T12:15:12.020Z,99.99
2018-07-12T12:16:12.014Z,99.99
2018-07-12T12:17:12.015Z,99.99
2018-07-12T12:18:12.008Z,99.99
2018-07-12T12:19:12.011Z,99.99
2018-07-12T12:20:12.007Z,99.99
2018-07-12T12:21:12.005Z,99.99
2018-07-12T12:22:12.000Z,99.99
2018-07-12T12:23:12.000Z,99.99
2018-07-12T12:24:11.998Z,99.99
2018-07-12T12:25:12.002Z,99.99
2018-07-12T12:26:11.990Z,99.99
2018-07-12T12:27:11.986Z,99.99
2018-07-12T12:28:11.729Z,99.99
2018-07-12T12:29:11.985Z,99.99
2018-07-12T12:30:11.981Z,99.99
2018-07-12T12:31:12.006Z,99.99
2018-07-12T12:32:11.980Z,99.99
2018-07-12T12:33:11.979Z,99.99
2018-07-12T12:34:11.981Z,99.99
2018-07-12T12:35:11.973Z,99.99
2018-07-12T12:36:11.973Z,99.99
2018-07-12T12:37:11.972Z,99.99
2018-07-12T12:38:11.967Z,99.99
2018-07-12T12:39:11.969Z,99.99
2018-07-12T12:40:11.965Z,99.99
2018-07-12T12:41:11.964Z,99.99
2018-07-12T12:42:11.965Z,99.99
2018-07-12T12:43:11.709Z,99.99
2018-07-12T12:44:11.706Z,99.99
2018-07-12T12:45:11.963Z,99.99
2018-07-12T12:46:11.957Z,99.99
2018-07-12T12:47:11.966Z,99.99
2018-07-12T12:48:11.703Z,99.99
2018-07-12T12:49:11.700Z,99.99
2018-07-12T12:50:11.698Z,99.99
2018-07-12T12:51:11.955Z,99.99
2018-07-12T12:52:11.956Z,99.99
2018-07-12T12:53:11.953Z,96.94
2018-07-12T12:54:11.952Z,98